sensor_id;sensor_type;location;lat;lon;timestamp;P1;durP1;ratioP1;P2;durP2;ratioP2
16296;SDS011;8256;56.144;13.394;2023-05-07T00:00:58;0.10;;;0.00;;
16296;SDS011;8256;56.144;13.394;2023-05-07T00:03:44;0.00;;;0.00;;
16296;SDS011;8256;56.144;13.394;2023-05-07T00:06:31;0.25;;;0.10;;
16296;SDS011;8256;56.144;13.394;2023-05-07T00:09:17;0.00;;;0.00;;
16296;SDS011;8256;56.144;13.394;2023-05-07T00:12:03;0.32;;;0.13;;
16296;SDS011;8256;56.144;13.394;2023-05-07T00:14:48;0.00;;;0.00;;
16296;SDS011;8256;56.144;13.394;2023-05-07T00:17:34;0.10;;;0.00;;
16296;SDS011;8256;56.144;13.394;2023-05-07T00:20:19;0.03;;;0.00;;
16296;SDS011;8256;56.144;13.394;2023-05-07T00:23:05;0.20;;;0.00;;
16296;SDS011;8256;56.144;13.394;2023-05-07T00:25:51;0.13;;;0.00;;
16296;SDS011;8256;56.144;13.394;2023-05-07T00:28:36;0.00;;;0.00;;
16296;SDS011;8256;56.144;13.394;2023-05-07T00:31:22;0.10;;;0.00;;
16296;SDS011;8256;56.144;13.394;2023-05-07T00:34:07;0.00;;;0.00;;
16296;SDS011;8256;56.144;13.394;2023-05-07T00:36:53;0.08;;;0.00;;
16296;SDS011;8256;56.144;13.394;2023-05-07T00:39:39;0.10;;;0.00;;
16296;SDS011;8256;56.144;13.394;2023-05-07T00:42:24;0.00;;;0.00;;
16296;SDS011;8256;56.144;13.394;2023-05-07T00:45:10;0.00;;;0.00;;
16296;SDS011;8256;56.144;13.394;2023-05-07T00:47:59;0.00;;;0.00;;
16296;SDS011;8256;56.144;13.394;2023-05-07T00:50:45;1.10;;;0.82;;
16296;SDS011;8256;56.144;13.394;2023-05-07T00:53:32;0.20;;;0.03;;
16296;SDS011;8256;56.144;13.394;2023-05-07T00:56:18;0.00;;;0.00;;
16296;SDS011;8256;56.144;13.394;2023-05-07T00:59:03;0.20;;;0.05;;
16296;SDS011;8256;56.144;13.394;2023-05-07T01:01:49;0.22;;;0.20;;
16296;SDS011;8256;56.144;13.394;2023-05-07T01:04:35;0.00;;;0.00;;
16296;SDS011;8256;56.144;13.394;2023-05-07T01:07:20;0.00;;;0.00;;
16296;SDS011;8256;56.144;13.394;2023-05-07T01:10:07;0.00;;;0.00;;
16296;SDS011;8256;56.144;13.394;2023-05-07T01:12:53;0.00;;;0.00;;
16296;SDS011;8256;56.144;13.394;2023-05-07T01:15:39;0.00;;;0.00;;
16296;SDS011;8256;56.144;13.394;2023-05-07T01:18:26;0.00;;;0.00;;
16296;SDS011;8256;56.144;13.394;2023-05-07T01:21:12;0.00;;;0.00;;
16296;SDS011;8256;56.144;13.394;2023-05-07T01:23:59;0.03;;;0.00;;
16296;SDS011;8256;56.144;13.394;2023-05-07T01:26:45;0.00;;;0.00;;
16296;SDS011;8256;56.144;13.394;2023-05-07T01:29:30;0.00;;;0.00;;
16296;SDS011;8256;56.144;13.394;2023-05-07T01:32:16;0.00;;;0.00;;
16296;SDS011;8256;56.144;13.394;2023-05-07T01:35:05;0.00;;;0.00;;
16296;SDS011;8256;56.144;13.394;2023-05-07T01:37:51;0.20;;;0.00;;
16296;SDS011;8256;56.144;13.394;2023-05-07T01:40:37;0.10;;;0.00;;
16296;SDS011;8256;56.144;13.394;2023-05-07T01:43:22;0.10;;;0.00;;
16296;SDS011;8256;56.144;13.394;2023-05-07T01:46:08;0.00;;;0.00;;
16296;SDS011;8256;56.144;13.394;2023-05-07T01:48:55;0.00;;;0.00;;
16296;SDS011;8256;56.144;13.394;2023-05-07T01:51:41;0.00;;;0.00;;
16296;SDS011;8256;56.144;13.394;2023-05-07T01:54:26;0.00;;;0.00;;
16296;SDS011;8256;56.144;13.394;2023-05-07T01:57:15;0.10;;;0.00;;
16296;SDS011;8256;56.144;13.394;2023-05-07T02:00:01;0.00;;;0.00;;
16296;SDS011;8256;56.144;13.394;2023-05-07T02:02:48;0.10;;;0.00;;
16296;SDS011;8256;56.144;13.394;2023-05-07T02:05:34;0.00;;;0.00;;
16296;SDS011;8256;56.144;13.394;2023-05-07T02:08:20;0.00;;;0.00;;
16296;SDS011;8256;56.144;13.394;2023-05-07T02:11:05;0.00;;;0.00;;
16296;SDS011;8256;56.144;13.394;2023-05-07T02:13:51;0.00;;;0.00;;
16296;SDS011;8256;56.144;13.394;2023-05-07T02:16:38;0.03;;;0.00;;
16296;SDS011;8256;56.144;13.394;2023-05-07T02:19:23;0.00;;;0.00;;
16296;SDS011;8256;56.144;13.394;2023-05-07T02:22:09;0.20;;;0.00;;
16296;SDS011;8256;56.144;13.394;2023-05-07T02:24:55;0.00;;;0.00;;
16296;SDS011;8256;56.144;13.394;2023-05-07T02:27:40;0.00;;;0.00;;
16296;SDS011;8256;56.144;13.394;2023-05-07T02:30:26;0.00;;;0.00;;
16296;SDS011;8256;56.144;13.394;2023-05-07T02:33:11;0.10;;;0.00;;
16296;SDS011;8256;56.144;13.394;2023-05-07T02:36:32;0.00;;;0.00;;
16296;SDS011;8256;56.144;13.394;2023-05-07T02:39:12;0.00;;;0.00;;
16296;SDS011;8256;56.144;13.394;2023-05-07T02:41:58;0.00;;;0.00;;
16296;SDS011;8256;56.144;13.394;2023-05-07T02:44:43;0.08;;;0.00;;
16296;SDS011;8256;56.144;13.394;2023-05-07T02:47:29;0.00;;;0.00;;
16296;SDS011;8256;56.144;13.394;2023-05-07T02:50:14;0.00;;;0.00;;
16296;SDS011;8256;56.144;13.394;2023-05-07T02:53:00;0.03;;;0.00;;
16296;SDS011;8256;56.144;13.394;2023-05-07T02:55:46;0.00;;;0.00;;
16296;SDS011;8256;56.144;13.394;2023-05-07T02:58:31;0.00;;;0.00;;
16296;SDS011;8256;56.144;13.394;2023-05-07T03:01:17;0.13;;;0.00;;
16296;SDS011;8256;56.144;13.394;2023-05-07T03:04:02;0.10;;;0.00;;
16296;SDS011;8256;56.144;13.394;2023-05-07T03:06:48;0.40;;;0.25;;
16296;SDS011;8256;56.144;13.394;2023-05-07T03:09:34;0.00;;;0.00;;
16296;SDS011;8256;56.144;13.394;2023-05-07T03:12:19;0.00;;;0.00;;
16296;SDS011;8256;56.144;13.394;2023-05-07T03:15:05;0.00;;;0.00;;
16296;SDS011;8256;56.144;13.394;2023-05-07T03:17:51;0.00;;;0.00;;
16296;SDS011;8256;56.144;13.394;2023-05-07T03:20:37;0.00;;;0.00;;
16296;SDS011;8256;56.144;13.394;2023-05-07T03:23:22;0.00;;;0.00;;
16296;SDS011;8256;56.144;13.394;2023-05-07T03:26:08;0.57;;;0.32;;
16296;SDS011;8256;56.144;13.394;2023-05-07T03:28:54;0.00;;;0.00;;
16296;SDS011;8256;56.144;13.394;2023-05-07T03:31:40;0.00;;;0.00;;
16296;SDS011;8256;56.144;13.394;2023-05-07T03:34:26;0.00;;;0.00;;
16296;SDS011;8256;56.144;13.394;2023-05-07T03:37:11;0.03;;;0.00;;
16296;SDS011;8256;56.144;13.394;2023-05-07T03:39:57;0.00;;;0.00;;
16296;SDS011;8256;56.144;13.394;2023-05-07T03:42:43;0.00;;;0.00;;
16296;SDS011;8256;56.144;13.394;2023-05-07T03:45:28;0.00;;;0.00;;
16296;SDS011;8256;56.144;13.394;2023-05-07T03:48:14;0.45;;;0.28;;
16296;SDS011;8256;56.144;13.394;2023-05-07T03:51:00;0.00;;;0.00;;
16296;SDS011;8256;56.144;13.394;2023-05-07T03:53:45;0.20;;;0.10;;
16296;SDS011;8256;56.144;13.394;2023-05-07T03:56:31;0.00;;;0.00;;
16296;SDS011;8256;56.144;13.394;2023-05-07T03:59:17;0.00;;;0.00;;
16296;SDS011;8256;56.144;13.394;2023-05-07T04:02:02;0.10;;;0.00;;
16296;SDS011;8256;56.144;13.394;2023-05-07T04:04:48;0.10;;;0.00;;
16296;SDS011;8256;56.144;13.394;2023-05-07T04:07:34;0.00;;;0.00;;
16296;SDS011;8256;56.144;13.394;2023-05-07T04:10:19;0.33;;;0.07;;
16296;SDS011;8256;56.144;13.394;2023-05-07T04:13:05;0.00;;;0.00;;
16296;SDS011;8256;56.144;13.394;2023-05-07T04:15:51;0.00;;;0.00;;
16296;SDS011;8256;56.144;13.394;2023-05-07T04:18:37;0.00;;;0.00;;
16296;SDS011;8256;56.144;13.394;2023-05-07T04:21:22;0.00;;;0.00;;
16296;SDS011;8256;56.144;13.394;2023-05-07T04:24:08;0.00;;;0.00;;
16296;SDS011;8256;56.144;13.394;2023-05-07T04:26:53;0.10;;;0.00;;
16296;SDS011;8256;56.144;13.394;2023-05-07T04:29:40;0.10;;;0.00;;
16296;SDS011;8256;56.144;13.394;2023-05-07T04:32:28;0.15;;;0.00;;
16296;SDS011;8256;56.144;13.394;2023-05-07T04:35:14;0.00;;;0.00;;
16296;SDS011;8256;56.144;13.394;2023-05-07T04:38:00;0.00;;;0.00;;
16296;SDS011;8256;56.144;13.394;2023-05-07T04:40:45;0.10;;;0.00;;
16296;SDS011;8256;56.144;13.394;2023-05-07T04:43:32;0.20;;;0.00;;
16296;SDS011;8256;56.144;13.394;2023-05-07T04:46:17;0.00;;;0.00;;
16296;SDS011;8256;56.144;13.394;2023-05-07T04:49:03;0.00;;;0.00;;
16296;SDS011;8256;56.144;13.394;2023-05-07T04:51:49;0.00;;;0.00;;
16296;SDS011;8256;56.144;13.394;2023-05-07T05:35:16;0.20;;;0.00;;
16296;SDS011;8256;56.144;13.394;2023-05-07T05:38:02;0.30;;;0.00;;
16296;SDS011;8256;56.144;13.394;2023-05-07T05:40:47;0.30;;;0.10;;
16296;SDS011;8256;56.144;13.394;2023-05-07T05:43:33;0.88;;;0.40;;
16296;SDS011;8256;56.144;13.394;2023-05-07T05:46:19;0.40;;;0.10;;
16296;SDS011;8256;56.144;13.394;2023-05-07T05:49:04;0.35;;;0.05;;
16296;SDS011;8256;56.144;13.394;2023-05-07T05:51:50;0.40;;;0.10;;
16296;SDS011;8256;56.144;13.394;2023-05-07T05:54:35;0.40;;;0.10;;
16296;SDS011;8256;56.144;13.394;2023-05-07T05:57:21;0.40;;;0.10;;
16296;SDS011;8256;56.144;13.394;2023-05-07T06:00:07;0.55;;;0.10;;
16296;SDS011;8256;56.144;13.394;2023-05-07T06:02:53;0.30;;;0.00;;
16296;SDS011;8256;56.144;13.394;2023-05-07T06:05:38;0.40;;;0.10;;
16296;SDS011;8256;56.144;13.394;2023-05-07T06:08:24;0.40;;;0.10;;
16296;SDS011;8256;56.144;13.394;2023-05-07T06:11:10;0.50;;;0.10;;
16296;SDS011;8256;56.144;13.394;2023-05-07T06:13:55;0.43;;;0.10;;
16296;SDS011;8256;56.144;13.394;2023-05-07T06:16:41;0.55;;;0.15;;
16296;SDS011;8256;56.144;13.394;2023-05-07T06:19:27;0.70;;;0.10;;
16296;SDS011;8256;56.144;13.394;2023-05-07T06:22:13;0.90;;;0.20;;
16296;SDS011;8256;56.144;13.394;2023-05-07T06:24:59;0.77;;;0.17;;
16296;SDS011;8256;56.144;13.394;2023-05-07T06:27:44;0.38;;;0.08;;
16296;SDS011;8256;56.144;13.394;2023-05-07T06:30:30;0.45;;;0.15;;
16296;SDS011;8256;56.144;13.394;2023-05-07T06:33:36;0.50;;;0.10;;
16296;SDS011;8256;56.144;13.394;2023-05-07T06:36:22;0.30;;;0.00;;
16296;SDS011;8256;56.144;13.394;2023-05-07T06:39:08;0.40;;;0.10;;
16296;SDS011;8256;56.144;13.394;2023-05-07T06:41:56;0.40;;;0.10;;
16296;SDS011;8256;56.144;13.394;2023-05-07T06:44:50;0.40;;;0.10;;
16296;SDS011;8256;56.144;13.394;2023-05-07T06:47:39;0.77;;;0.22;;
16296;SDS011;8256;56.144;13.394;2023-05-07T06:50:25;0.50;;;0.10;;
16296;SDS011;8256;56.144;13.394;2023-05-07T06:53:13;0.45;;;0.10;;
16296;SDS011;8256;56.144;13.394;2023-05-07T06:56:05;0.60;;;0.10;;
16296;SDS011;8256;56.144;13.394;2023-05-07T06:59:00;1.95;;;0.30;;
16296;SDS011;8256;56.144;13.394;2023-05-07T07:02:08;0.82;;;0.20;;
16296;SDS011;8256;56.144;13.394;2023-05-07T07:05:04;0.40;;;0.10;;
16296;SDS011;8256;56.144;13.394;2023-05-07T07:07:50;4.03;;;0.70;;
16296;SDS011;8256;56.144;13.394;2023-05-07T07:10:38;0.57;;;0.10;;
16296;SDS011;8256;56.144;13.394;2023-05-07T07:13:23;1.58;;;0.60;;
16296;SDS011;8256;56.144;13.394;2023-05-07T07:16:09;0.40;;;0.10;;
16296;SDS011;8256;56.144;13.394;2023-05-07T07:18:55;0.50;;;0.10;;
16296;SDS011;8256;56.144;13.394;2023-05-07T07:21:41;0.70;;;0.20;;
16296;SDS011;8256;56.144;13.394;2023-05-07T07:24:26;0.70;;;0.20;;
16296;SDS011;8256;56.144;13.394;2023-05-07T07:27:12;0.50;;;0.10;;
16296;SDS011;8256;56.144;13.394;2023-05-07T07:29:57;0.60;;;0.20;;
16296;SDS011;8256;56.144;13.394;2023-05-07T07:32:43;0.87;;;0.20;;
16296;SDS011;8256;56.144;13.394;2023-05-07T07:35:29;0.57;;;0.10;;
16296;SDS011;8256;56.144;13.394;2023-05-07T07:38:15;0.50;;;0.10;;
16296;SDS011;8256;56.144;13.394;2023-05-07T07:41:01;0.85;;;0.20;;
16296;SDS011;8256;56.144;13.394;2023-05-07T07:43:47;0.60;;;0.10;;
16296;SDS011;8256;56.144;13.394;2023-05-07T07:46:33;1.00;;;0.40;;
16296;SDS011;8256;56.144;13.394;2023-05-07T07:49:18;0.50;;;0.10;;
16296;SDS011;8256;56.144;13.394;2023-05-07T07:52:04;0.65;;;0.20;;
16296;SDS011;8256;56.144;13.394;2023-05-07T07:54:50;0.98;;;0.25;;
16296;SDS011;8256;56.144;13.394;2023-05-07T07:57:35;0.70;;;0.20;;
16296;SDS011;8256;56.144;13.394;2023-05-07T08:00:21;0.90;;;0.20;;
16296;SDS011;8256;56.144;13.394;2023-05-07T08:03:08;0.43;;;0.10;;
16296;SDS011;8256;56.144;13.394;2023-05-07T08:05:54;1.08;;;0.40;;
16296;SDS011;8256;56.144;13.394;2023-05-07T08:08:40;1.17;;;0.32;;
16296;SDS011;8256;56.144;13.394;2023-05-07T08:11:25;0.52;;;0.10;;
16296;SDS011;8256;56.144;13.394;2023-05-07T08:14:11;0.60;;;0.10;;
16296;SDS011;8256;56.144;13.394;2023-05-07T08:16:57;0.50;;;0.10;;
16296;SDS011;8256;56.144;13.394;2023-05-07T08:19:42;0.90;;;0.20;;
16296;SDS011;8256;56.144;13.394;2023-05-07T08:22:28;0.70;;;0.20;;
16296;SDS011;8256;56.144;13.394;2023-05-07T08:25:14;1.10;;;0.20;;
16296;SDS011;8256;56.144;13.394;2023-05-07T08:28:00;1.00;;;0.20;;
16296;SDS011;8256;56.144;13.394;2023-05-07T08:30:45;0.80;;;0.20;;
16296;SDS011;8256;56.144;13.394;2023-05-07T08:33:31;1.35;;;0.38;;
16296;SDS011;8256;56.144;13.394;2023-05-07T08:36:17;0.90;;;0.20;;
16296;SDS011;8256;56.144;13.394;2023-05-07T08:39:04;0.90;;;0.30;;
16296;SDS011;8256;56.144;13.394;2023-05-07T08:41:50;1.47;;;0.40;;
16296;SDS011;8256;56.144;13.394;2023-05-07T08:44:38;1.00;;;0.20;;
16296;SDS011;8256;56.144;13.394;2023-05-07T08:47:26;1.08;;;0.20;;
16296;SDS011;8256;56.144;13.394;2023-05-07T08:50:14;1.10;;;0.20;;
16296;SDS011;8256;56.144;13.394;2023-05-07T08:53:02;0.70;;;0.20;;
16296;SDS011;8256;56.144;13.394;2023-05-07T08:55:47;0.80;;;0.20;;
16296;SDS011;8256;56.144;13.394;2023-05-07T08:58:33;1.10;;;0.28;;
16296;SDS011;8256;56.144;13.394;2023-05-07T09:01:19;1.55;;;0.55;;
16296;SDS011;8256;56.144;13.394;2023-05-07T09:04:05;0.70;;;0.10;;
16296;SDS011;8256;56.144;13.394;2023-05-07T09:06:52;1.20;;;0.30;;
16296;SDS011;8256;56.144;13.394;2023-05-07T09:09:37;1.10;;;0.30;;
16296;SDS011;8256;56.144;13.394;2023-05-07T09:12:26;0.80;;;0.15;;
16296;SDS011;8256;56.144;13.394;2023-05-07T09:15:15;0.93;;;0.20;;
16296;SDS011;8256;56.144;13.394;2023-05-07T09:18:01;1.52;;;0.45;;
16296;SDS011;8256;56.144;13.394;2023-05-07T09:20:50;1.35;;;0.28;;
16296;SDS011;8256;56.144;13.394;2023-05-07T09:23:39;1.13;;;0.30;;
16296;SDS011;8256;56.144;13.394;2023-05-07T09:26:25;1.50;;;0.22;;
16296;SDS011;8256;56.144;13.394;2023-05-07T09:29:16;2.10;;;0.50;;
16296;SDS011;8256;56.144;13.394;2023-05-07T09:32:06;1.00;;;0.22;;
16296;SDS011;8256;56.144;13.394;2023-05-07T09:34:55;1.02;;;0.30;;
16296;SDS011;8256;56.144;13.394;2023-05-07T09:37:49;1.13;;;0.30;;
16296;SDS011;8256;56.144;13.394;2023-05-07T09:40:35;1.80;;;0.40;;
16296;SDS011;8256;56.144;13.394;2023-05-07T09:43:21;8.73;;;0.70;;
16296;SDS011;8256;56.144;13.394;2023-05-07T09:46:13;1.52;;;0.43;;
16296;SDS011;8256;56.144;13.394;2023-05-07T09:48:59;1.33;;;0.30;;
16296;SDS011;8256;56.144;13.394;2023-05-07T09:51:50;1.57;;;0.53;;
16296;SDS011;8256;56.144;13.394;2023-05-07T09:54:36;2.33;;;0.77;;
16296;SDS011;8256;56.144;13.394;2023-05-07T09:57:23;1.58;;;0.38;;
16296;SDS011;8256;56.144;13.394;2023-05-07T10:00:09;1.50;;;0.38;;
16296;SDS011;8256;56.144;13.394;2023-05-07T10:02:57;0.95;;;0.20;;
16296;SDS011;8256;56.144;13.394;2023-05-07T10:05:42;1.47;;;0.30;;
16296;SDS011;8256;56.144;13.394;2023-05-07T10:08:30;1.50;;;0.38;;
16296;SDS011;8256;56.144;13.394;2023-05-07T10:11:16;1.98;;;0.57;;
16296;SDS011;8256;56.144;13.394;2023-05-07T10:14:02;1.10;;;0.22;;
16296;SDS011;8256;56.144;13.394;2023-05-07T10:16:48;1.55;;;0.32;;
16296;SDS011;8256;56.144;13.394;2023-05-07T10:19:34;1.30;;;0.30;;
16296;SDS011;8256;56.144;13.394;2023-05-07T10:22:21;4.93;;;0.63;;
16296;SDS011;8256;56.144;13.394;2023-05-07T10:25:09;1.50;;;0.40;;
16296;SDS011;8256;56.144;13.394;2023-05-07T10:27:57;1.50;;;0.30;;
16296;SDS011;8256;56.144;13.394;2023-05-07T10:33:29;1.67;;;0.40;;
16296;SDS011;8256;56.144;13.394;2023-05-07T10:36:16;1.77;;;0.50;;
16296;SDS011;8256;56.144;13.394;2023-05-07T10:39:02;1.08;;;0.25;;
16296;SDS011;8256;56.144;13.394;2023-05-07T10:41:48;1.80;;;0.52;;
16296;SDS011;8256;56.144;13.394;2023-05-07T10:44:34;2.42;;;0.65;;
16296;SDS011;8256;56.144;13.394;2023-05-07T10:47:20;1.20;;;0.30;;
16296;SDS011;8256;56.144;13.394;2023-05-07T11:02:05;1.50;;;0.40;;
16296;SDS011;8256;56.144;13.394;2023-05-07T11:07:57;1.35;;;0.35;;
16296;SDS011;8256;56.144;13.394;2023-05-07T11:10:56;2.15;;;0.47;;
16296;SDS011;8256;56.144;13.394;2023-05-07T11:13:48;1.40;;;0.40;;
16296;SDS011;8256;56.144;13.394;2023-05-07T11:16:34;2.37;;;0.83;;
16296;SDS011;8256;56.144;13.394;2023-05-07T11:25:22;2.45;;;0.68;;
16296;SDS011;8256;56.144;13.394;2023-05-07T11:28:08;2.53;;;0.60;;
16296;SDS011;8256;56.144;13.394;2023-05-07T11:30:56;2.17;;;0.53;;
16296;SDS011;8256;56.144;13.394;2023-05-07T11:33:43;1.58;;;0.38;;
16296;SDS011;8256;56.144;13.394;2023-05-07T11:36:30;2.28;;;0.77;;
16296;SDS011;8256;56.144;13.394;2023-05-07T11:39:26;1.95;;;0.50;;
16296;SDS011;8256;56.144;13.394;2023-05-07T11:42:25;2.53;;;0.80;;
16296;SDS011;8256;56.144;13.394;2023-05-07T11:45:11;2.60;;;0.80;;
16296;SDS011;8256;56.144;13.394;2023-05-07T11:47:56;2.42;;;0.73;;
16296;SDS011;8256;56.144;13.394;2023-05-07T11:50:52;1.75;;;0.68;;
16296;SDS011;8256;56.144;13.394;2023-05-07T11:53:41;2.05;;;0.63;;
16296;SDS011;8256;56.144;13.394;2023-05-07T11:56:26;2.30;;;0.70;;
16296;SDS011;8256;56.144;13.394;2023-05-07T11:59:16;1.83;;;0.50;;
16296;SDS011;8256;56.144;13.394;2023-05-07T12:02:02;2.10;;;0.47;;
16296;SDS011;8256;56.144;13.394;2023-05-07T12:04:48;1.85;;;0.63;;
16296;SDS011;8256;56.144;13.394;2023-05-07T12:07:34;4.97;;;0.50;;
16296;SDS011;8256;56.144;13.394;2023-05-07T12:10:19;2.20;;;0.60;;
16296;SDS011;8256;56.144;13.394;2023-05-07T12:13:13;2.50;;;0.90;;
16296;SDS011;8256;56.144;13.394;2023-05-07T12:15:59;3.28;;;0.85;;
16296;SDS011;8256;56.144;13.394;2023-05-07T12:18:44;3.15;;;0.77;;
16296;SDS011;8256;56.144;13.394;2023-05-07T12:21:30;2.35;;;0.70;;
16296;SDS011;8256;56.144;13.394;2023-05-07T12:24:16;4.25;;;1.20;;
16296;SDS011;8256;56.144;13.394;2023-05-07T12:27:02;2.23;;;0.47;;
16296;SDS011;8256;56.144;13.394;2023-05-07T12:29:48;2.05;;;0.52;;
16296;SDS011;8256;56.144;13.394;2023-05-07T12:32:34;2.00;;;0.60;;
16296;SDS011;8256;56.144;13.394;2023-05-07T12:35:28;3.67;;;0.65;;
16296;SDS011;8256;56.144;13.394;2023-05-07T12:38:14;2.13;;;0.60;;
16296;SDS011;8256;56.144;13.394;2023-05-07T12:41:00;1.90;;;0.50;;
16296;SDS011;8256;56.144;13.394;2023-05-07T12:43:46;3.35;;;1.20;;
16296;SDS011;8256;56.144;13.394;2023-05-07T12:46:32;2.30;;;0.70;;
16296;SDS011;8256;56.144;13.394;2023-05-07T12:49:17;2.22;;;0.60;;
16296;SDS011;8256;56.144;13.394;2023-05-07T12:52:03;2.45;;;0.80;;
16296;SDS011;8256;56.144;13.394;2023-05-07T12:54:49;3.03;;;1.07;;
16296;SDS011;8256;56.144;13.394;2023-05-07T12:57:38;3.53;;;1.45;;
16296;SDS011;8256;56.144;13.394;2023-05-07T13:00:34;4.05;;;1.80;;
16296;SDS011;8256;56.144;13.394;2023-05-07T13:03:24;5.38;;;2.00;;
16296;SDS011;8256;56.144;13.394;2023-05-07T13:06:10;3.80;;;2.50;;
16296;SDS011;8256;56.144;13.394;2023-05-07T13:08:57;3.93;;;2.80;;
16296;SDS011;8256;56.144;13.394;2023-05-07T13:11:43;5.85;;;3.60;;
16296;SDS011;8256;56.144;13.394;2023-05-07T13:14:28;7.50;;;4.00;;
16296;SDS011;8256;56.144;13.394;2023-05-07T13:17:14;5.05;;;4.07;;
16296;SDS011;8256;56.144;13.394;2023-05-07T13:20:00;4.40;;;4.00;;
16296;SDS011;8256;56.144;13.394;2023-05-07T13:22:45;6.13;;;4.83;;
16296;SDS011;8256;56.144;13.394;2023-05-07T13:25:31;5.93;;;5.43;;
16296;SDS011;8256;56.144;13.394;2023-05-07T13:28:17;6.40;;;5.82;;
16296;SDS011;8256;56.144;13.394;2023-05-07T13:31:02;6.75;;;6.15;;
16296;SDS011;8256;56.144;13.394;2023-05-07T13:33:48;7.95;;;7.20;;
16296;SDS011;8256;56.144;13.394;2023-05-07T13:36:33;6.97;;;6.37;;
16296;SDS011;8256;56.144;13.394;2023-05-07T13:39:22;7.45;;;6.75;;
16296;SDS011;8256;56.144;13.394;2023-05-07T13:42:08;7.60;;;7.00;;
16296;SDS011;8256;56.144;13.394;2023-05-07T13:44:53;7.30;;;6.70;;
16296;SDS011;8256;56.144;13.394;2023-05-07T13:47:42;8.07;;;7.47;;
16296;SDS011;8256;56.144;13.394;2023-05-07T13:50:28;7.70;;;7.10;;
16296;SDS011;8256;56.144;13.394;2023-05-07T13:53:15;8.30;;;7.60;;
16296;SDS011;8256;56.144;13.394;2023-05-07T13:56:03;8.55;;;7.85;;
16296;SDS011;8256;56.144;13.394;2023-05-07T13:58:49;9.27;;;8.57;;
16296;SDS011;8256;56.144;13.394;2023-05-07T14:01:35;8.45;;;7.57;;
16296;SDS011;8256;56.144;13.394;2023-05-07T14:04:21;7.90;;;7.30;;
16296;SDS011;8256;56.144;13.394;2023-05-07T14:07:06;8.25;;;7.55;;
16296;SDS011;8256;56.144;13.394;2023-05-07T14:09:52;8.95;;;8.25;;
16296;SDS011;8256;56.144;13.394;2023-05-07T14:12:38;8.70;;;8.00;;
16296;SDS011;8256;56.144;13.394;2023-05-07T14:15:23;8.30;;;7.70;;
16296;SDS011;8256;56.144;13.394;2023-05-07T14:18:09;8.27;;;7.67;;
16296;SDS011;8256;56.144;13.394;2023-05-07T14:20:54;7.85;;;7.25;;
16296;SDS011;8256;56.144;13.394;2023-05-07T14:23:40;9.25;;;8.50;;
16296;SDS011;8256;56.144;13.394;2023-05-07T14:26:26;8.32;;;7.72;;
16296;SDS011;8256;56.144;13.394;2023-05-07T14:29:12;8.80;;;8.10;;
16296;SDS011;8256;56.144;13.394;2023-05-07T14:31:58;9.27;;;8.57;;
16296;SDS011;8256;56.144;13.394;2023-05-07T14:34:44;8.30;;;7.70;;
16296;SDS011;8256;56.144;13.394;2023-05-07T14:37:29;9.15;;;8.30;;
16296;SDS011;8256;56.144;13.394;2023-05-07T14:40:15;9.90;;;9.18;;
16296;SDS011;8256;56.144;13.394;2023-05-07T14:43:00;9.40;;;8.70;;
16296;SDS011;8256;56.144;13.394;2023-05-07T14:45:46;8.50;;;7.90;;
16296;SDS011;8256;56.144;13.394;2023-05-07T14:48:32;9.55;;;8.75;;
16296;SDS011;8256;56.144;13.394;2023-05-07T14:51:17;8.60;;;7.90;;
16296;SDS011;8256;56.144;13.394;2023-05-07T14:54:03;8.93;;;8.23;;
16296;SDS011;8256;56.144;13.394;2023-05-07T14:56:48;9.20;;;8.40;;
16296;SDS011;8256;56.144;13.394;2023-05-07T14:59:34;9.83;;;9.10;;
16296;SDS011;8256;56.144;13.394;2023-05-07T15:02:20;9.65;;;8.95;;
16296;SDS011;8256;56.144;13.394;2023-05-07T15:05:06;9.15;;;8.25;;
16296;SDS011;8256;56.144;13.394;2023-05-07T15:07:52;8.00;;;7.40;;
16296;SDS011;8256;56.144;13.394;2023-05-07T15:10:37;9.25;;;8.55;;
16296;SDS011;8256;56.144;13.394;2023-05-07T15:13:26;9.03;;;8.33;;
16296;SDS011;8256;56.144;13.394;2023-05-07T15:16:12;9.07;;;8.38;;
16296;SDS011;8256;56.144;13.394;2023-05-07T15:18:58;8.88;;;8.18;;
16296;SDS011;8256;56.144;13.394;2023-05-07T15:21:44;9.27;;;8.57;;
16296;SDS011;8256;56.144;13.394;2023-05-07T15:24:30;9.10;;;8.40;;
16296;SDS011;8256;56.144;13.394;2023-05-07T15:27:16;9.40;;;8.60;;
16296;SDS011;8256;56.144;13.394;2023-05-07T15:30:02;9.65;;;8.95;;
16296;SDS011;8256;56.144;13.394;2023-05-07T15:32:48;9.15;;;8.45;;
16296;SDS011;8256;56.144;13.394;2023-05-07T15:35:33;7.75;;;7.05;;
16296;SDS011;8256;56.144;13.394;2023-05-07T15:38:19;7.75;;;7.15;;
16296;SDS011;8256;56.144;13.394;2023-05-07T15:41:05;7.60;;;6.90;;
16296;SDS011;8256;56.144;13.394;2023-05-07T15:43:51;7.65;;;7.05;;
16296;SDS011;8256;56.144;13.394;2023-05-07T15:46:37;7.22;;;6.63;;
16296;SDS011;8256;56.144;13.394;2023-05-07T15:49:23;7.50;;;6.90;;
16296;SDS011;8256;56.144;13.394;2023-05-07T15:52:08;7.47;;;6.88;;
16296;SDS011;8256;56.144;13.394;2023-05-07T15:54:59;8.20;;;7.60;;
16296;SDS011;8256;56.144;13.394;2023-05-07T15:57:44;8.20;;;7.60;;
16296;SDS011;8256;56.144;13.394;2023-05-07T16:00:30;8.00;;;7.30;;
16296;SDS011;8256;56.144;13.394;2023-05-07T16:03:15;7.90;;;7.30;;
16296;SDS011;8256;56.144;13.394;2023-05-07T16:06:03;8.00;;;7.38;;
16296;SDS011;8256;56.144;13.394;2023-05-07T16:08:48;8.43;;;7.73;;
16296;SDS011;8256;56.144;13.394;2023-05-07T16:11:34;7.90;;;7.30;;
16296;SDS011;8256;56.144;13.394;2023-05-07T16:14:20;7.47;;;6.88;;
16296;SDS011;8256;56.144;13.394;2023-05-07T16:17:06;7.43;;;6.82;;
16296;SDS011;8256;56.144;13.394;2023-05-07T16:19:52;7.07;;;6.47;;
16296;SDS011;8256;56.144;13.394;2023-05-07T16:22:38;7.27;;;6.67;;
16296;SDS011;8256;56.144;13.394;2023-05-07T16:25:23;6.28;;;5.78;;
16296;SDS011;8256;56.144;13.394;2023-05-07T16:28:09;6.78;;;6.18;;
16296;SDS011;8256;56.144;13.394;2023-05-07T16:30:55;7.65;;;6.07;;
16296;SDS011;8256;56.144;13.394;2023-05-07T16:33:41;6.35;;;5.75;;
16296;SDS011;8256;56.144;13.394;2023-05-07T16:36:27;6.03;;;5.43;;
16296;SDS011;8256;56.144;13.394;2023-05-07T16:39:15;5.95;;;5.35;;
16296;SDS011;8256;56.144;13.394;2023-05-07T16:42:01;5.32;;;4.82;;
16296;SDS011;8256;56.144;13.394;2023-05-07T16:44:47;6.07;;;5.47;;
16296;SDS011;8256;56.144;13.394;2023-05-07T16:47:32;6.20;;;5.60;;
16296;SDS011;8256;56.144;13.394;2023-05-07T16:50:18;5.87;;;5.37;;
16296;SDS011;8256;56.144;13.394;2023-05-07T16:53:04;5.75;;;5.25;;
16296;SDS011;8256;56.144;13.394;2023-05-07T16:55:50;5.40;;;4.68;;
16296;SDS011;8256;56.144;13.394;2023-05-07T16:58:40;7.32;;;4.80;;
16296;SDS011;8256;56.144;13.394;2023-05-07T17:01:26;4.85;;;4.35;;
16296;SDS011;8256;56.144;13.394;2023-05-07T17:04:11;5.10;;;4.60;;
16296;SDS011;8256;56.144;13.394;2023-05-07T17:06:58;5.38;;;4.68;;
16296;SDS011;8256;56.144;13.394;2023-05-07T17:09:50;6.72;;;4.95;;
16296;SDS011;8256;56.144;13.394;2023-05-07T17:12:44;4.75;;;3.50;;
16296;SDS011;8256;56.144;13.394;2023-05-07T17:15:32;4.70;;;4.03;;
16296;SDS011;8256;56.144;13.394;2023-05-07T17:18:21;4.10;;;3.57;;
16296;SDS011;8256;56.144;13.394;2023-05-07T17:27:10;3.55;;;1.85;;
16296;SDS011;8256;56.144;13.394;2023-05-07T17:29:56;2.88;;;1.13;;
16296;SDS011;8256;56.144;13.394;2023-05-07T17:32:42;6.33;;;1.03;;
16296;SDS011;8256;56.144;13.394;2023-05-07T17:35:28;2.58;;;0.90;;
16296;SDS011;8256;56.144;13.394;2023-05-07T17:41:46;2.10;;;0.52;;
16296;SDS011;8256;56.144;13.394;2023-05-07T17:44:37;6.55;;;0.93;;
16296;SDS011;8256;56.144;13.394;2023-05-07T17:47:23;2.53;;;0.77;;
16296;SDS011;8256;56.144;13.394;2023-05-07T17:50:21;1.77;;;0.50;;
16296;SDS011;8256;56.144;13.394;2023-05-07T17:53:10;1.60;;;0.40;;
16296;SDS011;8256;56.144;13.394;2023-05-07T17:55:56;1.20;;;0.30;;
16296;SDS011;8256;56.144;13.394;2023-05-07T17:58:44;1.70;;;0.60;;